createdAt,value
2023-04-29T00:00:20.006Z,100.00
2023-04-29T00:01:16.983Z,100.00
2023-04-29T00:02:14.217Z,100.00
2023-04-29T00:03:11.514Z,100.00
2023-04-29T00:04:09.369Z,100.00
2023-04-29T00:05:06.996Z,100.00
2023-04-29T00:06:04.437Z,100.00
2023-04-29T00:07:01.373Z,100.00
2023-04-29T00:07:58.591Z,100.00
2023-04-29T00:08:55.380Z,100.00
2023-04-29T00:09:53.209Z,100.00
2023-04-29T00:10:50.378Z,100.00
2023-04-29T00:11:48.012Z,100.00
2023-04-29T00:12:44.886Z,100.00
2023-04-29T00:13:41.623Z,100.00
2023-04-29T00:14:38.705Z,100.00
2023-04-29T00:15:37.416Z,100.00
2023-04-29T00:16:34.419Z,100.00
2023-04-29T00:17:31.288Z,100.00
2023-04-29T00:18:28.089Z,100.00
2023-04-29T00:19:25.232Z,100.00
2023-04-29T00:20:22.155Z,100.00
2023-04-29T00:21:18.924Z,100.00
2023-04-29T00:22:15.741Z,100.00
2023-04-29T00:23:12.495Z,100.00
2023-04-29T00:24:09.205Z,100.00
2023-04-29T00:25:06.665Z,100.00
2023-04-29T00:26:03.713Z,100.00
2023-04-29T00:27:02.604Z,100.00
2023-04-29T00:28:02.153Z,100.00
2023-04-29T00:28:59.004Z,100.00
2023-04-29T00:29:55.846Z,100.00
2023-04-29T00:30:53.456Z,100.00
2023-04-29T00:31:50.329Z,100.00
2023-04-29T00:32:47.481Z,100.00
2023-04-29T00:33:45.088Z,100.00
2023-04-29T00:34:42.683Z,100.00
2023-04-29T00:35:39.567Z,100.00
2023-04-29T00:36:36.393Z,100.00
2023-04-29T00:37:33.334Z,100.00
2023-04-29T00:38:30.108Z,100.00
2023-04-29T00:39:26.894Z,100.00
2023-04-29T00:40:23.658Z,100.00
2023-04-29T00:41:21.290Z,100.00
2023-04-29T00:42:18.659Z,100.00
2023-04-29T00:43:15.645Z,100.00
2023-04-29T00:44:12.552Z,100.00
2023-04-29T00:45:11.610Z,100.00
2023-04-29T00:46:09.669Z,100.00
2023-04-29T00:47:11.418Z,100.00
2023-04-29T00:48:08.259Z,100.00
2023-04-29T00:49:05.703Z,100.00
2023-04-29T00:50:02.727Z,100.00
2023-04-29T00:50:59.702Z,100.00
2023-04-29T00:51:59.283Z,100.00
2023-04-29T00:52:56.019Z,100.00
2023-04-29T00:53:53.651Z,100.00
2023-04-29T00:54:52.086Z,100.00
2023-04-29T00:55:51.711Z,100.00
2023-04-29T00:56:50.579Z,100.00
2023-04-29T00:57:52.545Z,100.00
2023-04-29T00:58:52.931Z,100.00
2023-04-29T00:59:50.901Z,100.00
2023-04-29T01:00:48.309Z,100.00
2023-04-29T01:01:45.512Z,100.00
2023-04-29T01:02:42.518Z,100.00
2023-04-29T01:03:39.913Z,100.00
2023-04-29T01:04:36.985Z,100.00
2023-04-29T01:05:33.943Z,100.00
2023-04-29T01:06:30.874Z,100.00
2023-04-29T01:07:34.859Z,100.00
2023-04-29T01:08:44.383Z,100.00
2023-04-29T01:09:56.300Z,100.00
2023-04-29T01:11:11.727Z,100.00
2023-04-29T01:12:38.817Z,100.00
2023-04-29T01:13:46.284Z,100.00
2023-04-29T01:14:54.337Z,100.00
2023-04-29T01:16:03.833Z,100.00
2023-04-29T01:17:10.216Z,100.00
2023-04-29T01:18:19.499Z,100.00
2023-04-29T01:19:22.267Z,100.00
2023-04-29T01:20:20.941Z,100.00
2023-04-29T01:21:19.189Z,100.00
2023-04-29T01:22:18.491Z,100.00
2023-04-29T01:23:15.209Z,100.00
2023-04-29T01:24:11.938Z,100.00
2023-04-29T01:25:10.019Z,100.00
2023-04-29T01:26:08.306Z,100.00
2023-04-29T01:27:23.658Z,100.00
2023-04-29T01:28:23.472Z,100.00
2023-04-29T01:29:52.019Z,100.00
2023-04-29T01:31:06.807Z,100.00
2023-04-29T01:32:13.829Z,100.00
2023-04-29T01:33:16.524Z,100.00
2023-04-29T01:34:45.000Z,100.00
2023-04-29T01:35:59.119Z,100.00
2023-04-29T01:37:19.565Z,100.00
2023-04-29T01:39:00.793Z,100.00
2023-04-29T01:40:26.463Z,100.00
2023-04-29T01:41:36.834Z,100.00
2023-04-29T01:42:44.428Z,100.00
2023-04-29T01:43:43.097Z,100.00
2023-04-29T01:44:42.586Z,100.00
2023-04-29T01:45:44.142Z,100.00
2023-04-29T01:46:43.307Z,100.00
2023-04-29T01:47:42.014Z,100.00
2023-04-29T01:48:39.544Z,100.00
2023-04-29T01:49:37.551Z,100.00
2023-04-29T01:50:34.346Z,100.00
2023-04-29T01:51:31.481Z,100.00
2023-04-29T01:52:28.811Z,100.00
2023-04-29T01:53:25.548Z,100.00
2023-04-29T01:54:25.299Z,100.00
2023-04-29T01:55:22.554Z,100.00
2023-04-29T01:56:22.208Z,100.00
2023-04-29T01:57:19.508Z,100.00
2023-04-29T01:58:16.269Z,100.00
2023-04-29T01:59:13.002Z,100.00
2023-04-29T02:00:10.357Z,100.00
2023-04-29T02:01:07.191Z,100.00
2023-04-29T02:02:04.002Z,100.00
2023-04-29T02:03:00.939Z,100.00
2023-04-29T02:03:57.886Z,100.00
2023-04-29T02:04:55.228Z,100.00
2023-04-29T02:05:52.216Z,100.00
2023-04-29T02:06:48.991Z,100.00
2023-04-29T02:07:45.879Z,100.00
2023-04-29T02:08:42.738Z,100.00
2023-04-29T02:09:39.506Z,100.00
2023-04-29T02:10:36.268Z,100.00
2023-04-29T02:11:33.079Z,100.00
2023-04-29T02:12:29.900Z,100.00
2023-04-29T02:13:27.241Z,100.00
2023-04-29T02:14:23.973Z,100.00
2023-04-29T02:15:21.306Z,100.00
2023-04-29T02:16:18.367Z,100.00
2023-04-29T02:17:15.191Z,100.00
2023-04-29T02:18:11.959Z,100.00
2023-04-29T02:19:08.708Z,100.00
2023-04-29T02:20:05.988Z,100.00
2023-04-29T02:21:03.304Z,100.00
2023-04-29T02:22:00.129Z,100.00
2023-04-29T02:22:56.876Z,100.00
2023-04-29T02:23:54.519Z,100.00
2023-04-29T02:24:52.126Z,100.00
2023-04-29T02:25:49.397Z,100.00
2023-04-29T02:26:46.182Z,100.00
2023-04-29T02:27:42.972Z,100.00
2023-04-29T02:28:39.884Z,100.00
2023-04-29T02:29:37.152Z,100.00
2023-04-29T02:30:34.010Z,100.00
2023-04-29T02:31:30.885Z,100.00
2023-04-29T02:32:27.692Z,100.00
2023-04-29T02:33:24.599Z,100.00
2023-04-29T02:34:21.417Z,100.00
2023-04-29T02:35:18.119Z,100.00
2023-04-29T02:36:14.955Z,100.00
2023-04-29T02:37:11.761Z,100.00
2023-04-29T02:38:08.554Z,100.00
2023-04-29T02:39:05.301Z,100.00
2023-04-29T02:40:03.880Z,100.00
2023-04-29T02:41:00.589Z,100.00
2023-04-29T02:41:57.326Z,100.00
2023-04-29T02:42:54.049Z,100.00
2023-04-29T02:43:50.761Z,100.00
2023-04-29T02:44:47.551Z,100.00
2023-04-29T02:45:44.811Z,100.00
2023-04-29T02:46:45.390Z,100.00
2023-04-29T02:47:42.281Z,100.00
2023-04-29T02:48:39.274Z,100.00
2023-04-29T02:49:36.154Z,100.00
2023-04-29T02:50:33.397Z,100.00
2023-04-29T02:51:30.900Z,100.00
2023-04-29T02:52:28.205Z,100.00
2023-04-29T02:53:44.231Z,100.00
2023-04-29T02:54:40.981Z,100.00
2023-04-29T02:55:38.068Z,100.00
2023-04-29T02:56:34.859Z,100.00
2023-04-29T02:57:32.284Z,100.00
2023-04-29T02:58:29.035Z,100.00
2023-04-29T02:59:25.756Z,100.00
2023-04-29T03:00:22.664Z,100.00
2023-04-29T03:01:19.574Z,100.00
2023-04-29T03:02:16.401Z,100.00
2023-04-29T03:03:13.594Z,100.00
2023-04-29T03:04:10.827Z,100.00
2023-04-29T03:05:08.135Z,100.00
2023-04-29T03:06:04.898Z,100.00
2023-04-29T03:07:01.738Z,100.00
2023-04-29T03:07:58.582Z,100.00
2023-04-29T03:08:55.313Z,100.00
2023-04-29T03:09:52.503Z,100.00
2023-04-29T03:10:49.548Z,100.00
2023-04-29T03:11:46.318Z,100.00
2023-04-29T03:12:43.110Z,100.00
2023-04-29T03:13:39.873Z,100.00
2023-04-29T03:14:36.708Z,100.00
2023-04-29T03:15:33.458Z,100.00
2023-04-29T03:16:31.418Z,100.00
2023-04-29T03:17:28.237Z,100.00
2023-04-29T03:18:25.238Z,100.00
2023-04-29T03:19:22.335Z,100.00
2023-04-29T03:20:19.578Z,100.00
2023-04-29T03:21:16.367Z,100.00
2023-04-29T03:22:13.141Z,100.00
2023-04-29T03:23:09.888Z,100.00
2023-04-29T03:24:06.799Z,100.00
2023-04-29T03:25:04.165Z,100.00
2023-04-29T03:26:01.427Z,100.00
2023-04-29T03:27:00.146Z,100.00
2023-04-29T03:27:57.304Z,100.00
2023-04-29T03:28:54.130Z,100.00
2023-04-29T03:29:51.154Z,100.00
2023-04-29T03:30:48.356Z,100.00
2023-04-29T03:31:45.311Z,100.00
2023-04-29T03:32:42.317Z,100.00
2023-04-29T03:33:39.128Z,100.00
2023-04-29T03:34:36.080Z,100.00
2023-04-29T03:35:32.942Z,100.00
2023-04-29T03:36:29.776Z,100.00
2023-04-29T03:37:26.570Z,100.00
2023-04-29T03:38:23.424Z,100.00
2023-04-29T03:39:20.414Z,100.00
2023-04-29T03:40:17.149Z,100.00
2023-04-29T03:41:13.978Z,100.00
2023-04-29T03:42:13.266Z,100.00
2023-04-29T03:43:10.385Z,100.00
2023-04-29T03:44:07.238Z,100.00
2023-04-29T03:45:04.320Z,100.00
2023-04-29T03:46:01.107Z,100.00
2023-04-29T03:46:57.949Z,100.00
2023-04-29T03:47:55.009Z,100.00
2023-04-29T03:48:52.446Z,100.00
2023-04-29T03:49:49.345Z,100.00
2023-04-29T03:50:46.367Z,100.00
2023-04-29T03:51:45.438Z,100.00
2023-04-29T03:52:42.344Z,100.00
2023-04-29T03:53:39.760Z,100.00
2023-04-29T03:54:36.510Z,100.00
2023-04-29T03:55:33.263Z,100.00
2023-04-29T03:56:30.009Z,100.00
2023-04-29T03:57:26.794Z,100.00
2023-04-29T03:58:23.834Z,100.00
2023-04-29T03:59:20.734Z,100.00
2023-04-29T04:00:17.668Z,100.00
2023-04-29T04:01:15.375Z,100.00
2023-04-29T04:02:12.300Z,100.00
2023-04-29T04:03:09.419Z,100.00
2023-04-29T04:04:06.453Z,100.00
2023-04-29T04:05:03.642Z,100.00
2023-04-29T04:06:00.400Z,100.00
2023-04-29T04:06:57.956Z,100.00
2023-04-29T04:07:55.255Z,100.00
2023-04-29T04:08:52.105Z,100.00
2023-04-29T04:09:49.235Z,100.00
2023-04-29T04:10:46.024Z,100.00
2023-04-29T04:11:42.697Z,100.00
2023-04-29T04:12:39.429Z,100.00
2023-04-29T04:13:36.994Z,100.00
2023-04-29T04:14:34.568Z,100.00
2023-04-29T04:15:31.306Z,100.00
2023-04-29T04:16:28.260Z,100.00
2023-04-29T04:17:25.153Z,100.00
2023-04-29T04:18:21.899Z,100.00
2023-04-29T04:19:18.658Z,100.00
2023-04-29T04:20:16.070Z,100.00
2023-04-29T04:21:13.552Z,100.00
2023-04-29T04:22:12.972Z,100.00
2023-04-29T04:23:09.803Z,100.00
2023-04-29T04:24:07.096Z,100.00
2023-04-29T04:25:04.662Z,100.00
2023-04-29T04:26:01.756Z,100.00
2023-04-29T04:26:58.564Z,100.00
2023-04-29T04:27:55.317Z,100.00
2023-04-29T04:28:52.379Z,100.00
2023-04-29T04:29:53.496Z,100.00
2023-04-29T04:30:50.944Z,100.00
2023-04-29T04:31:47.808Z,100.00
2023-04-29T04:32:44.803Z,100.00
2023-04-29T04:33:41.904Z,100.00
2023-04-29T04:34:41.399Z,100.00
2023-04-29T04:35:38.158Z,100.00
2023-04-29T04:36:34.909Z,100.00
2023-04-29T04:37:31.667Z,100.00
2023-04-29T04:38:28.467Z,100.00
2023-04-29T04:39:25.188Z,100.00
2023-04-29T04:40:21.900Z,100.00
2023-04-29T04:41:18.635Z,100.00
2023-04-29T04:42:15.405Z,100.00
2023-04-29T04:43:12.272Z,100.00
2023-04-29T04:44:09.185Z,100.00
2023-04-29T04:45:06.640Z,100.00
2023-04-29T04:46:16.901Z,100.00
2023-04-29T04:47:13.952Z,100.00
2023-04-29T04:48:10.937Z,100.00
2023-04-29T04:49:07.804Z,100.00
2023-04-29T04:50:05.012Z,100.00
2023-04-29T04:51:09.026Z,100.00
2023-04-29T04:52:05.958Z,100.00
2023-04-29T04:53:03.735Z,100.00
2023-04-29T04:54:00.589Z,100.00
2023-04-29T04:54:57.369Z,100.00
2023-04-29T04:55:54.120Z,100.00
2023-04-29T04:56:52.370Z,100.00
2023-04-29T04:57:49.210Z,100.00
2023-04-29T04:58:46.025Z,100.00
2023-04-29T04:59:43.431Z,100.00
2023-04-29T05:00:44.533Z,100.00
2023-04-29T05:01:41.489Z,100.00
2023-04-29T05:02:38.499Z,100.00
2023-04-29T05:03:35.579Z,100.00
2023-04-29T05:04:32.530Z,100.00
2023-04-29T05:05:29.342Z,100.00
2023-04-29T05:06:26.624Z,100.00
2023-04-29T05:07:23.499Z,100.00
2023-04-29T05:08:20.507Z,100.00
2023-04-29T05:09:17.395Z,100.00
2023-04-29T05:10:14.130Z,100.00
2023-04-29T05:11:18.379Z,100.00
2023-04-29T05:12:15.847Z,100.00
2023-04-29T05:13:12.705Z,100.00
2023-04-29T05:14:09.596Z,100.00
2023-04-29T05:15:06.869Z,100.00
2023-04-29T05:16:06.528Z,100.00
2023-04-29T05:17:03.665Z,100.00
2023-04-29T05:18:00.786Z,100.00
2023-04-29T05:18:57.564Z,100.00
2023-04-29T05:19:54.590Z,100.00
2023-04-29T05:20:51.443Z,100.00
2023-04-29T05:21:48.260Z,100.00
2023-04-29T05:22:45.051Z,100.00
2023-04-29T05:23:42.074Z,100.00
2023-04-29T05:24:38.813Z,100.00
2023-04-29T05:25:35.895Z,100.00
2023-04-29T05:26:32.648Z,100.00
2023-04-29T05:27:30.184Z,100.00
2023-04-29T05:28:28.194Z,100.00
2023-04-29T05:29:27.212Z,100.00
2023-04-29T05:30:23.962Z,100.00
2023-04-29T05:31:21.557Z,100.00
2023-04-29T05:32:18.356Z,100.00
2023-04-29T05:33:15.091Z,100.00
2023-04-29T05:34:11.828Z,100.00
2023-04-29T05:35:09.724Z,100.00
2023-04-29T05:36:06.962Z,100.00
2023-04-29T05:37:03.695Z,100.00
2023-04-29T05:38:00.419Z,100.00
2023-04-29T05:38:57.288Z,100.00
2023-04-29T05:39:54.218Z,100.00
2023-04-29T05:40:53.138Z,100.00
2023-04-29T05:41:49.929Z,100.00
2023-04-29T05:42:47.125Z,100.00
2023-04-29T05:43:43.988Z,100.00
2023-04-29T05:44:41.101Z,100.00
2023-04-29T05:45:37.843Z,100.00
2023-04-29T05:46:34.702Z,100.00
2023-04-29T05:47:31.625Z,100.00
2023-04-29T05:48:29.946Z,100.00
2023-04-29T05:49:26.718Z,100.00
2023-04-29T05:50:23.650Z,100.00
2023-04-29T05:51:20.475Z,100.00
2023-04-29T05:52:17.263Z,100.00
2023-04-29T05:53:19.607Z,100.00
2023-04-29T05:54:16.672Z,100.00
2023-04-29T05:55:13.604Z,100.00
2023-04-29T05:56:12.974Z,100.00
2023-04-29T05:57:24.597Z,100.00
2023-04-29T05:58:21.448Z,100.00
2023-04-29T05:59:21.262Z,100.00
2023-04-29T06:00:18.099Z,100.00
2023-04-29T06:01:14.928Z,100.00
2023-04-29T06:02:12.432Z,100.00
2023-04-29T06:03:11.374Z,100.00
2023-04-29T06:04:08.592Z,100.00
2023-04-29T06:05:06.181Z,100.00
2023-04-29T06:06:03.804Z,100.00
2023-04-29T06:07:00.952Z,100.00
2023-04-29T06:07:58.185Z,100.00
2023-04-29T06:08:55.004Z,100.00
2023-04-29T06:09:52.000Z,100.00
2023-04-29T06:10:54.814Z,100.00
2023-04-29T06:11:58.031Z,100.00
2023-04-29T06:12:54.914Z,100.00
2023-04-29T06:13:51.642Z,100.00
2023-04-29T06:14:48.551Z,100.00
2023-04-29T06:15:45.612Z,100.00
2023-04-29T06:16:42.644Z,100.00
2023-04-29T06:17:39.472Z,100.00
2023-04-29T06:18:36.228Z,100.00
2023-04-29T06:19:34.085Z,100.00
2023-04-29T06:20:30.956Z,100.00
2023-04-29T06:21:31.583Z,100.00
2023-04-29T06:22:28.344Z,100.00
2023-04-29T06:23:25.214Z,100.00
2023-04-29T06:24:22.120Z,100.00
2023-04-29T06:25:18.988Z,100.00
2023-04-29T06:26:15.816Z,100.00
2023-04-29T06:27:12.577Z,100.00
2023-04-29T06:28:09.405Z,100.00
2023-04-29T06:29:06.269Z,100.00
2023-04-29T06:30:03.234Z,100.00
2023-04-29T06:31:00.166Z,100.00
2023-04-29T06:31:56.979Z,100.00
2023-04-29T06:32:53.776Z,100.00
2023-04-29T06:33:51.294Z,100.00
2023-04-29T06:34:48.112Z,100.00
2023-04-29T06:35:44.951Z,100.00
2023-04-29T06:36:41.765Z,100.00
2023-04-29T06:37:38.538Z,100.00
2023-04-29T06:38:35.421Z,100.00
2023-04-29T06:39:32.399Z,100.00
2023-04-29T06:40:29.177Z,100.00
2023-04-29T06:41:27.320Z,100.00
2023-04-29T06:42:24.091Z,100.00
2023-04-29T06:43:21.096Z,100.00
2023-04-29T06:44:19.285Z,100.00
2023-04-29T06:45:16.155Z,100.00
2023-04-29T06:46:13.234Z,100.00
2023-04-29T06:47:10.249Z,100.00
2023-04-29T06:48:07.343Z,100.00
2023-04-29T06:49:04.251Z,100.00
2023-04-29T06:50:01.348Z,100.00
2023-04-29T06:50:58.889Z,100.00
2023-04-29T06:51:55.715Z,100.00
2023-04-29T06:52:52.704Z,100.00
2023-04-29T06:53:49.506Z,100.00
2023-04-29T06:54:46.424Z,100.00
2023-04-29T06:55:43.207Z,100.00
2023-04-29T06:56:39.977Z,100.00
2023-04-29T06:57:37.013Z,100.00
2023-04-29T06:58:33.837Z,100.00
2023-04-29T06:59:30.687Z,100.00
2023-04-29T07:00:27.567Z,100.00
2023-04-29T07:01:24.521Z,100.00
2023-04-29T07:02:21.441Z,100.00
2023-04-29T07:03:19.047Z,100.00
2023-04-29T07:04:15.976Z,100.00
2023-04-29T07:05:12.904Z,100.00
2023-04-29T07:06:09.706Z,100.00
2023-04-29T07:07:06.988Z,100.00
2023-04-29T07:08:03.751Z,100.00
2023-04-29T07:09:00.604Z,100.00
2023-04-29T07:09:57.390Z,100.00
2023-04-29T07:10:57.751Z,100.00
2023-04-29T07:11:55.023Z,100.00
2023-04-29T07:12:51.962Z,100.00
2023-04-29T07:13:48.818Z,100.00
2023-04-29T07:14:45.715Z,100.00
2023-04-29T07:15:42.463Z,100.00
2023-04-29T07:16:39.238Z,100.00
2023-04-29T07:17:36.161Z,100.00
2023-04-29T07:18:33.089Z,100.00
2023-04-29T07:19:31.101Z,100.00
2023-04-29T07:20:27.820Z,100.00
2023-04-29T07:21:24.560Z,100.00
2023-04-29T07:22:21.315Z,100.00
2023-04-29T07:23:18.036Z,100.00
2023-04-29T07:24:14.826Z,100.00
2023-04-29T07:25:11.959Z,100.00
2023-04-29T07:26:16.771Z,100.00
2023-04-29T07:27:13.518Z,100.00
2023-04-29T07:28:10.556Z,100.00
2023-04-29T07:29:07.283Z,100.00
2023-04-29T07:30:06.072Z,100.00
2023-04-29T07:31:03.035Z,100.00
2023-04-29T07:31:59.992Z,100.00
2023-04-29T07:32:56.958Z,100.00
2023-04-29T07:33:53.719Z,100.00
2023-04-29T07:34:50.553Z,100.00
2023-04-29T07:35:47.412Z,100.00
2023-04-29T07:36:44.205Z,100.00
2023-04-29T07:37:43.804Z,100.00
2023-04-29T07:38:40.837Z,100.00
2023-04-29T07:39:37.742Z,100.00
2023-04-29T07:40:34.566Z,100.00
2023-04-29T07:41:31.461Z,100.00
2023-04-29T07:42:28.148Z,100.00
2023-04-29T07:43:24.901Z,100.00
2023-04-29T07:44:22.521Z,100.00
2023-04-29T07:45:19.331Z,100.00
2023-04-29T07:46:18.310Z,100.00
2023-04-29T07:47:15.136Z,100.00
2023-04-29T07:48:11.890Z,100.00
2023-04-29T07:49:08.754Z,100.00
2023-04-29T07:50:06.060Z,100.00
2023-04-29T07:51:03.813Z,100.00
2023-04-29T07:52:00.727Z,100.00
2023-04-29T07:52:59.945Z,100.00
2023-04-29T07:53:56.742Z,100.00
2023-04-29T07:54:56.264Z,100.00
2023-04-29T07:55:53.056Z,100.00
2023-04-29T07:56:50.519Z,100.00
2023-04-29T07:57:47.209Z,100.00
2023-04-29T07:58:43.977Z,100.00
2023-04-29T07:59:40.880Z,100.00
2023-04-29T08:00:37.854Z,100.00
2023-04-29T08:01:34.560Z,99.18
2023-04-29T08:02:31.537Z,94.71
2023-04-29T08:03:28.592Z,94.20
2023-04-29T08:04:25.942Z,92.78
2023-04-29T08:05:24.548Z,90.92
2023-04-29T08:06:22.439Z,90.08
2023-04-29T08:07:19.296Z,89.54
2023-04-29T08:08:16.150Z,91.16
2023-04-29T08:09:13.088Z,90.16
2023-04-29T08:10:10.516Z,90.27
2023-04-29T08:11:07.493Z,90.72
2023-04-29T08:12:04.707Z,90.23
2023-04-29T08:13:01.553Z,91.21
2023-04-29T08:14:00.189Z,93.01
2023-04-29T08:14:57.012Z,96.04
2023-04-29T08:15:54.143Z,95.53
2023-04-29T08:16:51.073Z,95.78
2023-04-29T08:17:47.874Z,99.28
2023-04-29T08:18:44.885Z,98.45
2023-04-29T08:19:41.731Z,97.61
2023-04-29T08:20:38.462Z,98.27
2023-04-29T08:21:35.313Z,98.69
2023-04-29T08:22:32.234Z,97.57
2023-04-29T08:23:29.043Z,96.97
2023-04-29T08:24:25.776Z,95.12
2023-04-29T08:25:22.538Z,90.85
2023-04-29T08:26:19.451Z,90.97
2023-04-29T08:27:16.623Z,92.25
2023-04-29T08:28:13.408Z,94.26
2023-04-29T08:29:10.134Z,94.08
2023-04-29T08:30:07.571Z,91.54
2023-04-29T08:31:07.140Z,90.67
2023-04-29T08:32:03.947Z,91.77
2023-04-29T08:33:00.897Z,90.82
2023-04-29T08:33:58.821Z,89.27
2023-04-29T08:34:55.880Z,87.60
2023-04-29T08:35:59.289Z,88.27
2023-04-29T08:36:57.604Z,88.23
2023-04-29T08:37:54.493Z,86.64
2023-04-29T08:38:52.905Z,87.41
2023-04-29T08:39:49.809Z,88.99
2023-04-29T08:40:47.139Z,92.27
2023-04-29T08:41:51.309Z,89.51
2023-04-29T08:42:49.812Z,88.11
2023-04-29T08:43:46.918Z,88.62
2023-04-29T08:44:44.391Z,88.62
2023-04-29T08:45:43.427Z,88.86
2023-04-29T08:46:41.597Z,91.24
2023-04-29T08:47:39.709Z,89.92
2023-04-29T08:48:41.327Z,88.78
2023-04-29T08:49:41.681Z,87.18
2023-04-29T08:50:41.280Z,85.79
2023-04-29T08:51:38.176Z,86.92
2023-04-29T08:52:36.088Z,84.28
2023-04-29T08:53:33.104Z,84.68
2023-04-29T08:54:31.331Z,84.97
2023-04-29T08:55:28.374Z,85.78
2023-04-29T08:56:27.399Z,84.39
2023-04-29T08:57:28.222Z,84.09
2023-04-29T08:58:28.644Z,86.47
2023-04-29T08:59:26.272Z,84.07
2023-04-29T09:00:24.972Z,84.48
2023-04-29T09:01:24.253Z,85.44
2023-04-29T09:02:25.267Z,85.59
2023-04-29T09:03:42.971Z,85.20
2023-04-29T09:05:07.242Z,83.73
2023-04-29T09:06:06.420Z,84.69
2023-04-29T09:07:05.638Z,84.53
2023-04-29T09:08:04.869Z,86.52
2023-04-29T09:09:03.957Z,86.96
2023-04-29T09:10:04.472Z,86.38
2023-04-29T09:11:01.731Z,88.55
2023-04-29T09:11:59.053Z,87.23
2023-04-29T09:12:58.949Z,86.69
2023-04-29T09:14:02.698Z,85.68
2023-04-29T09:17:46.497Z,83.34
2023-04-29T09:18:50.385Z,81.85
2023-04-29T09:19:47.182Z,82.46
2023-04-29T09:20:43.941Z,81.08
2023-04-29T09:21:41.067Z,80.72
2023-04-29T09:22:52.276Z,79.96
2023-04-29T09:23:52.590Z,79.70
2023-04-29T09:24:49.352Z,78.98
2023-04-29T09:25:56.934Z,78.16
2023-04-29T09:26:54.032Z,76.29
2023-04-29T09:27:51.375Z,75.32
2023-04-29T09:29:13.914Z,75.47
2023-04-29T09:30:12.647Z,77.45
2023-04-29T09:31:09.657Z,75.74
2023-04-29T09:32:20.858Z,73.99
2023-04-29T09:33:17.654Z,73.54
2023-04-29T09:34:15.105Z,72.15
2023-04-29T09:35:28.360Z,70.29
2023-04-29T09:36:42.062Z,69.88
2023-04-29T09:37:38.825Z,68.30
2023-04-29T09:38:36.911Z,68.59
2023-04-29T09:39:39.932Z,67.77
2023-04-29T09:40:50.125Z,67.26
2023-04-29T09:41:53.737Z,68.01
2023-04-29T09:42:51.435Z,67.51
2023-04-29T09:44:04.630Z,67.40
2023-04-29T09:45:01.532Z,67.68
2023-04-29T09:45:58.549Z,67.65
2023-04-29T09:46:59.825Z,68.76
2023-04-29T09:48:06.287Z,66.33
2023-04-29T09:49:07.052Z,64.38
2023-04-29T09:50:16.650Z,68.24
2023-04-29T09:51:15.641Z,70.49
2023-04-29T09:52:16.501Z,69.61
2023-04-29T09:53:29.910Z,69.19
2023-04-29T09:54:36.262Z,67.70
2023-04-29T09:55:33.187Z,66.06
2023-04-29T09:56:52.539Z,66.13
2023-04-29T09:57:49.273Z,65.31
2023-04-29T09:58:46.079Z,65.22
2023-04-29T09:59:43.549Z,65.22
2023-04-29T10:00:40.507Z,64.66
2023-04-29T10:01:37.246Z,63.41
2023-04-29T10:02:34.616Z,63.26
2023-04-29T10:03:37.431Z,65.64
2023-04-29T10:04:40.061Z,64.08
2023-04-29T10:05:37.152Z,64.33
2023-04-29T10:06:34.410Z,64.43
2023-04-29T10:07:31.372Z,63.32
2023-04-29T10:08:29.865Z,64.73
2023-04-29T10:09:26.969Z,64.93
2023-04-29T10:10:24.754Z,65.36
2023-04-29T10:11:21.830Z,64.73
2023-04-29T10:12:20.436Z,65.08
2023-04-29T10:13:17.423Z,63.53
2023-04-29T10:14:26.187Z,62.61
2023-04-29T10:15:32.685Z,61.32
2023-04-29T10:16:34.550Z,61.11
2023-04-29T10:17:46.046Z,62.86
2023-04-29T10:18:49.656Z,60.88
2023-04-29T10:19:58.554Z,60.45
2023-04-29T10:21:00.304Z,60.43
2023-04-29T10:22:05.131Z,62.33
2023-04-29T10:23:04.051Z,61.42
2023-04-29T10:24:03.642Z,61.59
2023-04-29T10:25:02.953Z,61.13
2023-04-29T10:26:03.639Z,61.72
2023-04-29T10:27:00.888Z,61.97
2023-04-29T10:28:00.890Z,61.66
2023-04-29T10:29:00.185Z,60.42
2023-04-29T10:30:01.005Z,58.01
2023-04-29T10:31:03.434Z,58.38
2023-04-29T10:32:01.766Z,58.51
2023-04-29T10:33:02.310Z,59.43
2023-04-29T10:33:59.419Z,59.58
2023-04-29T10:34:58.571Z,60.06
2023-04-29T10:35:56.265Z,59.49
2023-04-29T10:36:53.400Z,60.49
2023-04-29T10:37:51.004Z,58.55
2023-04-29T10:38:53.991Z,56.81
2023-04-29T10:40:21.258Z,55.35
2023-04-29T10:41:25.598Z,56.19
2023-04-29T10:42:43.395Z,56.44
2023-04-29T10:43:40.349Z,56.29
2023-04-29T10:45:15.417Z,56.08
2023-04-29T10:46:27.055Z,56.70
2023-04-29T10:47:23.923Z,55.86
2023-04-29T10:48:24.193Z,57.55
2023-04-29T10:49:24.188Z,56.73
2023-04-29T10:50:22.061Z,54.89
2023-04-29T10:51:31.592Z,56.58
2023-04-29T10:52:28.289Z,53.23
2023-04-29T10:53:25.104Z,46.81
2023-04-29T10:54:25.985Z,45.40
2023-04-29T10:55:25.930Z,43.76
2023-04-29T10:56:22.940Z,45.61
2023-04-29T10:57:22.781Z,47.77
2023-04-29T10:58:38.883Z,47.23
2023-04-29T10:59:36.621Z,39.50
2023-04-29T11:00:37.942Z,37.13
2023-04-29T11:01:46.692Z,36.83
2023-04-29T11:02:43.589Z,38.23
2023-04-29T11:04:02.045Z,37.29
2023-04-29T11:05:12.688Z,37.06
2023-04-29T11:06:10.165Z,37.96
2023-04-29T11:07:06.927Z,37.76
2023-04-29T11:08:10.037Z,38.36
2023-04-29T11:09:21.252Z,38.47
2023-04-29T11:10:18.113Z,38.86
2023-04-29T11:11:15.722Z,40.11
2023-04-29T11:12:13.626Z,38.95
2023-04-29T11:13:26.047Z,38.92
2023-04-29T11:14:49.681Z,40.24
2023-04-29T11:15:46.686Z,41.01
2023-04-29T11:16:53.526Z,41.11
2023-04-29T11:17:50.691Z,41.21
2023-04-29T11:19:08.500Z,42.24
2023-04-29T11:20:14.339Z,43.21
2023-04-29T11:21:11.316Z,41.83
2023-04-29T11:22:12.496Z,42.53
2023-04-29T11:23:09.260Z,43.28
2023-04-29T11:24:07.198Z,42.14
2023-04-29T11:25:07.398Z,42.18
2023-04-29T11:26:04.783Z,41.98
2023-04-29T11:27:06.234Z,41.97
2023-04-29T11:28:04.166Z,42.78
2023-04-29T11:29:01.120Z,42.91
2023-04-29T11:29:59.231Z,42.31
2023-04-29T11:30:57.098Z,41.62
2023-04-29T11:31:59.849Z,42.07
2023-04-29T11:32:59.325Z,43.29
2023-04-29T11:33:56.198Z,43.83
2023-04-29T11:34:54.251Z,43.06
2023-04-29T11:35:52.128Z,42.22
2023-04-29T11:36:49.117Z,42.75
2023-04-29T11:37:47.483Z,41.76
2023-04-29T11:38:44.484Z,41.54
2023-04-29T11:39:41.497Z,41.84
2023-04-29T11:40:43.059Z,41.70
2023-04-29T11:41:39.999Z,41.53
2023-04-29T11:42:48.357Z,40.66
2023-04-29T11:43:54.761Z,40.68
2023-04-29T11:44:53.472Z,40.45
2023-04-29T11:45:52.683Z,40.43
2023-04-29T11:46:49.911Z,40.21
2023-04-29T11:47:48.379Z,39.77
2023-04-29T11:48:49.777Z,40.15
2023-04-29T11:49:48.973Z,40.74
2023-04-29T11:50:51.408Z,41.74
2023-04-29T11:51:48.406Z,44.14
2023-04-29T11:52:47.798Z,45.13
2023-04-29T11:53:47.455Z,44.65
2023-04-29T11:54:44.393Z,45.15
2023-04-29T11:55:45.494Z,45.52
2023-04-29T11:56:42.351Z,44.55
2023-04-29T11:57:40.595Z,45.09
2023-04-29T11:58:38.596Z,43.95
2023-04-29T11:59:35.429Z,44.88
2023-04-29T12:00:32.343Z,44.94
2023-04-29T12:01:30.508Z,44.31
2023-04-29T12:02:34.271Z,44.05
2023-04-29T12:03:33.247Z,44.02
2023-04-29T12:04:30.431Z,43.34
2023-04-29T12:05:27.834Z,42.60
2023-04-29T12:06:28.376Z,42.74
2023-04-29T12:07:25.156Z,43.35
2023-04-29T12:08:26.129Z,42.54
2023-04-29T12:09:23.572Z,41.64
2023-04-29T12:10:21.500Z,40.37
2023-04-29T12:11:18.357Z,40.89
2023-04-29T12:12:16.086Z,41.65
2023-04-29T12:13:12.975Z,42.41
2023-04-29T12:14:09.984Z,42.95
2023-04-29T12:15:10.275Z,42.96
2023-04-29T12:16:19.980Z,42.65
2023-04-29T12:17:20.095Z,43.04
2023-04-29T12:18:18.757Z,42.57
2023-04-29T12:19:15.971Z,42.69
2023-04-29T12:20:13.737Z,42.30
2023-04-29T12:21:13.505Z,42.32
2023-04-29T12:22:10.411Z,43.17
2023-04-29T12:23:18.996Z,42.05
2023-04-29T12:24:17.506Z,43.34
2023-04-29T12:25:16.441Z,43.01
2023-04-29T12:26:13.862Z,42.58
2023-04-29T12:27:11.295Z,43.05